Time;durP1;ratioP1;P1;durP2;ratioP2;P2;SDS_P1;SDS_P2;PMS_P1;PMS_P2;Temp;Humidity;BMP_temperature;BMP_pressure;BME280_temperature;BME280_humidity;BME280_pressure;Samples;Min_cycle;Max_cycle;Signal;HPM_P1;HPM_P2
2022/03/28 00:02:06;;;;;;;75.53;28.80;;;;;;;8.06;90.85;100348.47;4965502;28;20070;-52
2022/03/28 00:04:31;;;;;;;57.85;26.30;;;;;;;7.70;90.53;100344.19;4970404;28;20050;-51
2022/03/28 00:06:56;;;;;;;69.85;28.35;;;;;;;7.89;93.55;100342.66;4969652;28;20050;-51
2022/03/28 00:09:22;;;;;;;68.07;28.52;;;;;;;7.78;92.07;100341.34;4970082;28;20031;-52
2022/03/28 00:11:47;;;;;;;58.40;24.92;;;;;;;7.61;92.42;100340.00;4969856;28;20098;-50
2022/03/28 00:14:13;;;;;;;66.05;29.50;;;;;;;7.87;94.17;100344.69;4968979;28;20420;-50
2022/03/28 00:16:38;;;;;;;69.40;29.10;;;;;;;8.14;91.81;100335.78;4969424;28;20077;-49
2022/03/28 00:19:04;;;;;;;69.15;29.13;;;;;;;7.96;92.22;100344.34;4968233;28;20042;-51
2022/03/28 00:21:29;;;;;;;73.10;28.35;;;;;;;7.99;94.40;100343.94;4961032;28;20453;-53
2022/03/28 00:23:54;;;;;;;76.90;28.98;;;;;;;7.97;93.41;100329.94;4961058;28;20031;-52
2022/03/28 00:26:20;;;;;;;64.85;28.17;;;;;;;7.86;92.77;100337.69;4961088;28;20109;-50
2022/03/28 00:28:45;;;;;;;64.03;28.67;;;;;;;7.68;91.76;100325.69;4961642;28;20390;-50
2022/03/28 00:31:11;;;;;;;59.80;25.48;;;;;;;7.55;90.95;100326.44;4968569;28;20046;-51
2022/03/28 00:33:36;;;;;;;67.72;28.73;;;;;;;7.30;91.06;100322.56;4966179;28;20504;-53
2022/03/28 00:36:02;;;;;;;73.90;29.88;;;;;;;7.61;94.78;100327.47;4964398;28;20042;-54
2022/03/28 00:38:28;;;;;;;76.70;29.27;;;;;;;7.72;94.86;100320.78;4960242;28;20445;-53
2022/03/28 00:40:53;;;;;;;65.30;26.73;;;;;;;7.64;94.55;100320.94;4948678;28;20478;-52
2022/03/28 00:43:19;;;;;;;62.75;27.30;;;;;;;7.47;92.95;100313.25;4961255;28;20046;-50
2022/03/28 00:45:44;;;;;;;62.83;27.17;;;;;;;7.34;92.61;100318.50;4968825;28;20043;-52
2022/03/28 00:48:10;;;;;;;65.95;27.90;;;;;;;7.15;93.15;100311.19;4965802;28;20031;-52
2022/03/28 00:50:36;;;;;;;72.25;29.50;;;;;;;7.30;95.37;100312.72;4967596;28;20122;-51
2022/03/28 00:53:02;;;;;;;61.92;26.40;;;;;;;7.21;93.79;100319.22;4956252;28;20476;-51
2022/03/28 00:55:28;;;;;;;65.85;26.83;;;;;;;6.98;93.26;100314.13;4959223;28;20425;-53
2022/03/28 00:57:53;;;;;;;64.68;28.13;;;;;;;6.75;92.33;100313.50;4965876;28;20041;-54
2022/03/28 01:00:18;;;;;;;61.88;27.05;;;;;;;6.68;93.81;100308.94;4968438;28;20038;-50
2022/03/28 01:02:45;;;;;;;70.30;27.77;;;;;;;6.77;95.64;100306.16;4969037;28;20027;-53
2022/03/28 01:05:11;;;;;;;61.20;27.27;;;;;;;6.65;94.64;100306.66;4963892;28;20035;-54
2022/03/28 01:07:43;;;;;;;63.55;28.45;;;;;;;6.65;94.82;100304.00;4958791;28;20035;-54
2022/03/28 01:10:12;;;;;;;63.90;26.98;;;;;;;6.53;93.52;100300.19;4969100;28;20058;-52
2022/03/28 01:12:42;;;;;;;70.88;27.35;;;;;;;6.40;94.19;100286.75;4966723;28;20037;-52
2022/03/28 01:15:08;;;;;;;67.90;28.23;;;;;;;6.55;96.67;100286.69;4961636;28;20038;-50
2022/03/28 01:20:17;;;;;;;64.72;26.55;;;;;;;6.60;97.32;100285.09;4961334;28;20046;-49
2022/03/28 01:22:43;;;;;;;73.85;28.42;;;;;;;6.57;97.30;100269.50;4956566;28;20038;-49
2022/03/28 01:25:08;;;;;;;72.65;28.20;;;;;;;6.64;97.92;100275.72;4942824;28;20042;-50
2022/03/28 01:27:36;;;;;;;74.95;28.30;;;;;;;6.61;96.78;100273.41;4954694;28;20033;-50
2022/03/28 01:30:04;;;;;;;69.90;27.20;;;;;;;6.52;96.87;100271.91;4964888;28;20057;-49
2022/03/28 01:32:30;;;;;;;75.50;27.75;;;;;;;6.31;96.91;100275.38;4968025;28;20031;-52
2022/03/28 01:34:55;;;;;;;83.97;31.35;;;;;;;6.41;98.50;100265.22;4968673;28;20085;-49
2022/03/28 01:37:20;;;;;;;84.78;30.77;;;;;;;6.85;100.00;100258.88;4967327;28;20050;-50
2022/03/28 01:39:46;;;;;;;71.57;28.42;;;;;;;6.77;98.22;100255.53;4964257;28;20043;-50
2022/03/28 01:42:11;;;;;;;68.70;27.10;;;;;;;6.54;96.25;100247.72;4962908;28;20105;-52
2022/03/28 01:44:37;;;;;;;71.00;29.05;;;;;;;6.55;97.64;100260.88;4963548;28;20485;-51
2022/03/28 01:47:02;;;;;;;84.63;31.38;;;;;;;6.39;97.25;100255.78;4968314;28;20098;-52
2022/03/28 01:49:28;;;;;;;73.00;28.60;;;;;;;6.24;97.03;100248.69;4966551;28;20113;-51
2022/03/28 01:51:53;;;;;;;76.55;27.35;;;;;;;6.24;98.22;100254.03;4965153;28;20397;-53
2022/03/28 01:54:19;;;;;;;67.05;25.60;;;;;;;5.95;97.29;100256.75;4967757;28;20071;-52
2022/03/28 01:56:44;;;;;;;77.97;30.25;;;;;;;6.25;99.58;100254.84;4957798;28;20106;-52
2022/03/28 01:59:10;;;;;;;78.03;29.42;;;;;;;6.19;98.74;100253.75;4958610;28;20501;-50
2022/03/28 02:01:35;;;;;;;74.53;30.08;;;;;;;6.14;98.24;100253.50;4960233;28;20053;-52
2022/03/28 02:04:01;;;;;;;80.90;28.63;;;;;;;6.10;99.13;100246.91;4963440;28;20397;-54
2022/03/28 02:06:26;;;;;;;73.25;28.08;;;;;;;6.14;99.72;100250.84;4957865;28;20117;-49
2022/03/28 02:08:52;;;;;;;72.80;28.40;;;;;;;6.04;98.15;100252.97;4968154;28;20026;-54
2022/03/28 02:11:17;;;;;;;73.50;30.02;;;;;;;5.95;97.62;100249.59;4958125;28;20237;-50
2022/03/28 02:13:43;;;;;;;69.60;27.35;;;;;;;5.89;97.95;100247.66;4961568;28;20033;-53
2022/03/28 02:16:08;;;;;;;73.85;28.33;;;;;;;5.83;100.00;100241.22;4965304;28;20070;-53
2022/03/28 02:18:33;;;;;;;86.55;31.88;;;;;;;5.96;100.00;100243.25;4961262;28;20038;-53
2022/03/28 02:20:59;;;;;;;94.00;35.20;;;;;;;6.10;100.00;100238.91;4967289;28;20047;-53
2022/03/28 02:23:25;;;;;;;91.35;33.70;;;;;;;6.06;100.00;100234.97;4962239;28;20078;-52
2022/03/28 02:25:50;;;;;;;94.97;33.03;;;;;;;5.81;98.82;100243.25;4967488;28;20109;-50
2022/03/28 02:28:16;;;;;;;75.53;29.92;;;;;;;5.67;98.40;100233.47;4953875;28;20046;-51
2022/03/28 02:30:42;;;;;;;73.22;28.85;;;;;;;5.57;98.50;100238.28;4955454;28;20046;-53
2022/03/28 02:33:08;;;;;;;73.15;29.42;;;;;;;5.47;97.88;100229.75;4964086;28;20401;-51
2022/03/28 02:35:33;;;;;;;77.13;29.50;;;;;;;5.51;97.10;100228.34;4967449;28;20046;-53
2022/03/28 02:38:01;;;;;;;79.10;30.25;;;;;;;5.60;97.51;100227.25;4966262;28;20038;-50
2022/03/28 02:40:31;;;;;;;76.05;29.77;;;;;;;5.52;97.60;100232.69;4962513;28;20405;-53
2022/03/28 02:42:57;;;;;;;75.70;29.70;;;;;;;5.44;97.39;100233.56;4959061;28;20105;-54
2022/03/28 02:45:26;;;;;;;77.78;30.55;;;;;;;5.38;97.67;100227.16;4966329;28;20046;-53
2022/03/28 02:47:52;;;;;;;80.05;30.35;;;;;;;5.31;97.42;100231.56;4967659;28;20417;-53
2022/03/28 02:50:17;;;;;;;67.53;28.50;;;;;;;5.09;96.85;100205.91;4960895;28;20046;-54
2022/03/28 02:52:42;;;;;;;76.93;29.38;;;;;;;4.87;98.75;100224.41;4957984;28;20389;-52
2022/03/28 02:55:08;;;;;;;71.07;30.90;;;;;;;4.99;100.00;100216.78;4966743;28;20546;-51
2022/03/28 02:57:34;;;;;;;81.85;31.52;;;;;;;5.11;100.00;100210.03;4958708;28;20034;-53
2022/03/28 02:59:59;;;;;;;94.25;35.58;;;;;;;5.29;100.00;100212.34;4956732;28;20085;-52
2022/03/28 03:02:25;;;;;;;104.25;38.03;;;;;;;5.33;100.00;100205.63;4960828;28;20051;-53
2022/03/28 03:04:50;;;;;;;95.70;37.20;;;;;;;5.32;100.00;100206.66;4967941;28;20035;-51
2022/03/28 03:07:16;;;;;;;92.40;35.80;;;;;;;5.38;100.00;100197.94;4967002;28;20051;-50
2022/03/28 03:09:41;;;;;;;110.43;40.35;;;;;;;5.67;100.00;100193.59;4965920;28;20027;-50
2022/03/28 03:12:07;;;;;;;96.85;36.20;;;;;;;5.46;100.00;100190.84;4963423;28;20438;-52
2022/03/28 03:14:33;;;;;;;103.30;37.50;;;;;;;5.55;100.00;100192.41;4965817;28;20078;-52
2022/03/28 03:16:58;;;;;;;89.50;34.15;;;;;;;5.30;100.00;100187.41;4962105;28;20051;-53
2022/03/28 03:19:24;;;;;;;76.10;31.13;;;;;;;5.12;100.00;100179.81;4967259;28;20031;-51
2022/03/28 03:21:49;;;;;;;69.80;29.08;;;;;;;5.15;100.00;100184.75;4966146;28;20117;-53
2022/03/28 03:24:15;;;;;;;76.50;30.90;;;;;;;4.96;98.93;100177.31;4967876;28;20023;-51
2022/03/28 03:26:40;;;;;;;85.57;31.52;;;;;;;4.74;100.00;100182.53;4966442;28;20521;-52
2022/03/28 03:29:06;;;;;;;85.68;36.03;;;;;;;4.88;100.00;100185.38;4966963;28;20043;-51
2022/03/28 03:31:31;;;;;;;83.88;35.35;;;;;;;4.87;100.00;100181.91;4966435;28;20039;-52
2022/03/28 03:33:57;;;;;;;84.00;33.00;;;;;;;4.92;100.00;100190.16;4962040;28;20137;-54
2022/03/28 03:36:22;;;;;;;87.07;34.13;;;;;;;4.75;100.00;100184.16;4960816;28;20390;-53
2022/03/28 03:38:48;;;;;;;86.82;35.72;;;;;;;4.67;100.00;100188.75;4967040;28;20393;-51
2022/03/28 03:41:13;;;;;;;85.10;34.72;;;;;;;4.66;100.00;100179.13;4970176;28;20039;-50
2022/03/28 03:43:39;;;;;;;89.95;34.72;;;;;;;4.59;100.00;100180.84;4960519;28;20019;-53
2022/03/28 03:46:04;;;;;;;95.22;35.33;;;;;;;4.65;100.00;100182.78;4964952;28;20054;-50
2022/03/28 03:48:30;;;;;;;80.65;29.77;;;;;;;4.57;100.00;100182.84;4960013;28;20043;-53
2022/03/28 03:50:55;;;;;;;74.43;29.98;;;;;;;4.54;100.00;100174.25;4967475;28;20039;-53
2022/03/28 03:53:20;;;;;;;78.07;31.35;;;;;;;4.46;99.98;100176.97;4970745;28;20027;-51
2022/03/28 03:55:46;;;;;;;79.30;31.42;;;;;;;4.36;98.84;100176.38;4965721;28;20043;-53
2022/03/28 03:58:12;;;;;;;87.53;33.83;;;;;;;4.32;100.00;100169.81;4970059;28;20566;-50
2022/03/28 04:00:37;;;;;;;96.65;33.78;;;;;;;4.39;100.00;100169.91;4957121;28;20517;-50
2022/03/28 04:03:03;;;;;;;88.95;33.63;;;;;;;4.41;100.00;100166.06;4970106;28;20027;-57
2022/03/28 04:05:30;;;;;;;81.90;33.85;;;;;;;4.31;100.00;100158.34;4970416;28;20074;-50
2022/03/28 04:07:55;;;;;;;85.00;34.60;;;;;;;4.35;100.00;100160.66;4970102;28;20503;-53
2022/03/28 04:10:22;;;;;;;88.65;36.22;;;;;;;4.40;100.00;100163.59;4965234;28;20055;-53
2022/03/28 04:12:48;;;;;;;95.35;35.25;;;;;;;4.32;100.00;100167.16;4967167;28;20484;-52
2022/03/28 04:15:13;;;;;;;95.72;36.20;;;;;;;4.34;100.00;100154.50;4959621;28;20019;-52
2022/03/28 04:17:44;;;;;;;83.78;35.10;;;;;;;4.35;100.00;100164.13;4969327;28;20500;-52
2022/03/28 04:20:11;;;;;;;96.75;37.35;;;;;;;4.35;100.00;100161.47;4964523;28;20035;-53
2022/03/28 04:22:37;;;;;;;106.50;41.38;;;;;;;4.63;100.00;100155.59;4966709;28;20023;-51
2022/03/28 04:25:03;;;;;;;104.55;39.70;;;;;;;4.42;100.00;100150.94;4963156;28;20503;-51
2022/03/28 04:27:28;;;;;;;104.30;39.15;;;;;;;4.45;100.00;100142.66;4968731;28;20118;-52
2022/03/28 04:29:54;;;;;;;119.93;40.60;;;;;;;4.59;100.00;100148.97;4959928;28;20552;-52
2022/03/28 04:32:19;;;;;;;105.15;37.92;;;;;;;4.47;100.00;100138.81;4967051;28;20054;-50
2022/03/28 04:34:45;;;;;;;103.18;37.42;;;;;;;4.59;100.00;100146.31;4962848;28;20062;-52
2022/03/28 04:37:10;;;;;;;102.93;39.95;;;;;;;4.56;100.00;100142.19;4974966;28;20042;-50
2022/03/28 04:39:36;;;;;;;110.38;40.17;;;;;;;4.72;100.00;100141.22;4969321;28;20059;-50
2022/03/28 04:42:01;;;;;;;99.00;38.42;;;;;;;4.64;100.00;100152.75;4978759;28;20073;-50
2022/03/28 04:44:26;;;;;;;86.32;34.53;;;;;;;4.39;100.00;100146.81;4967807;28;20046;-50
2022/03/28 04:46:52;;;;;;;90.78;36.03;;;;;;;4.27;100.00;100140.31;4962445;28;20066;-52
2022/03/28 04:49:17;;;;;;;87.38;34.28;;;;;;;4.31;100.00;100139.75;4969614;28;20035;-50
2022/03/28 04:51:43;;;;;;;85.13;34.22;;;;;;;4.48;100.00;100145.75;4967089;28;20042;-50
2022/03/28 04:54:08;;;;;;;277.30;41.67;;;;;;;4.60;100.00;100140.03;4969269;28;20037;-49
2022/03/28 04:56:34;;;;;;;124.43;36.95;;;;;;;4.69;100.00;100137.09;4964711;28;20066;-50
2022/03/28 04:59:00;;;;;;;132.73;39.65;;;;;;;4.80;100.00;100138.47;4962560;28;20043;-52
2022/03/28 05:01:25;;;;;;;100.20;38.95;;;;;;;4.73;100.00;100140.22;4959635;28;20081;-53
2022/03/28 05:03:51;;;;;;;98.93;38.22;;;;;;;4.65;100.00;100133.16;4961106;28;20030;-51
2022/03/28 05:06:16;;;;;;;85.55;33.22;;;;;;;4.66;100.00;100142.75;4961446;28;20042;-50
2022/03/28 05:08:42;;;;;;;119.15;40.42;;;;;;;4.60;100.00;100145.34;4965484;28;20465;-48
2022/03/28 05:11:07;;;;;;;110.90;36.88;;;;;;;4.77;100.00;100136.19;4959407;28;20090;-51
2022/03/28 05:13:32;;;;;;;112.03;40.20;;;;;;;4.71;100.00;100139.56;4961842;28;20038;-52
2022/03/28 05:15:58;;;;;;;86.00;34.80;;;;;;;4.32;100.00;100135.31;4964660;28;20066;-52
2022/03/28 05:18:23;;;;;;;86.80;34.88;;;;;;;4.46;100.00;100131.00;4962259;28;20496;-52
2022/03/28 05:20:49;;;;;;;93.90;36.00;;;;;;;4.25;100.00;100134.38;4961830;28;20230;-51
2022/03/28 05:23:14;;;;;;;96.85;37.50;;;;;;;4.37;100.00;100132.94;4968437;28;20518;-53
2022/03/28 05:25:40;;;;;;;93.45;35.30;;;;;;;4.39;100.00;100136.22;4968720;28;20043;-51
2022/03/28 05:28:05;;;;;;;82.82;34.58;;;;;;;4.23;100.00;100141.69;4968268;28;20035;-51
2022/03/28 05:30:31;;;;;;;82.13;34.25;;;;;;;4.77;100.00;100133.53;4961683;28;20051;-50
2022/03/28 05:32:56;;;;;;;91.53;34.85;;;;;;;5.08;100.00;100138.66;4959379;28;20035;-50
2022/03/28 05:35:22;;;;;;;89.30;36.80;;;;;;;4.85;100.00;100133.44;4966585;28;20034;-52
2022/03/28 05:37:47;;;;;;;92.13;34.67;;;;;;;4.98;100.00;100143.41;4960236;28;21007;-52
2022/03/28 05:40:13;;;;;;;75.75;31.05;;;;;;;5.07;100.00;100146.81;4952052;28;20364;-52
2022/03/28 05:42:39;;;;;;;78.20;31.67;;;;;;;4.76;98.57;100138.00;4967918;28;20093;-51
2022/03/28 05:45:05;;;;;;;69.07;30.15;;;;;;;4.60;100.00;100142.69;4957583;28;20034;-51
2022/03/28 05:47:31;;;;;;;80.68;30.20;;;;;;;4.65;100.00;100135.00;4956935;28;20027;-51
2022/03/28 05:49:56;;;;;;;83.88;35.05;;;;;;;5.26;100.00;100140.91;4958479;28;20026;-51
2022/03/28 05:52:22;;;;;;;96.15;36.97;;;;;;;5.70;100.00;100139.19;4962003;28;20039;-52
2022/03/28 05:54:47;;;;;;;80.10;34.17;;;;;;;6.47;97.16;100130.50;4960717;28;20042;-51
2022/03/28 05:57:13;;;;;;;79.15;34.35;;;;;;;7.11;93.17;100140.97;4960053;28;20081;-51
2022/03/28 05:59:38;;;;;;;72.57;32.70;;;;;;;8.33;87.30;100135.72;4964627;28;20111;-53
2022/03/28 06:02:04;;;;;;;67.78;27.27;;;;;;;9.21;77.33;100136.22;4965683;28;20105;-51
2022/03/28 06:04:30;;;;;;;55.08;24.20;;;;;;;9.96;74.47;100141.00;4963530;28;20414;-51
2022/03/28 06:06:55;;;;;;;56.40;23.63;;;;;;;8.61;76.79;100138.19;4960508;28;20047;-52
2022/03/28 06:09:21;;;;;;;62.50;27.58;;;;;;;10.22;75.00;100139.16;4960000;28;20082;-52
2022/03/28 06:11:46;;;;;;;50.15;25.58;;;;;;;11.80;65.61;100140.38;4967170;28;20096;-51
2022/03/28 06:14:12;;;;;;;48.30;23.85;;;;;;;12.25;60.89;100142.63;4967673;28;20394;-52
2022/03/28 06:16:37;;;;;;;51.85;24.58;;;;;;;12.42;60.55;100137.41;4960312;28;20050;-51
2022/03/28 06:19:03;;;;;;;44.97;23.48;;;;;;;12.58;58.77;100142.09;4961823;28;20031;-51
2022/03/28 06:21:30;;;;;;;46.92;21.48;;;;;;;12.69;57.56;100137.78;4963947;28;20493;-50
2022/03/28 06:23:57;;;;;;;45.72;22.80;;;;;;;12.92;56.33;100136.94;4962956;28;20065;-53
2022/03/28 06:26:23;;;;;;;46.28;24.70;;;;;;;12.15;59.21;100140.50;4960142;28;20051;-52
2022/03/28 06:28:49;;;;;;;49.88;25.48;;;;;;;11.68;61.81;100143.00;4965819;28;20647;-51
2022/03/28 06:31:15;;;;;;;48.83;26.05;;;;;;;11.56;62.49;100142.16;4965813;28;20552;-54
2022/03/28 06:33:41;;;;;;;50.42;26.88;;;;;;;10.51;68.22;100141.22;4965733;28;20085;-53
2022/03/28 06:36:06;;;;;;;46.33;24.50;;;;;;;12.21;62.21;100147.66;4955928;28;20490;-52
2022/03/28 06:38:31;;;;;;;45.10;24.77;;;;;;;13.72;57.24;100132.66;4957565;28;20397;-51
2022/03/28 06:40:57;;;;;;;47.47;24.77;;;;;;;13.82;56.37;100130.97;4966176;28;20039;-54
2022/03/28 06:43:22;;;;;;;43.42;23.85;;;;;;;13.73;55.99;100135.13;4963326;28;20094;-54
2022/03/28 06:45:50;;;;;;;46.42;23.63;;;;;;;12.98;58.74;100136.00;4960174;28;20050;-54
2022/03/28 06:48:16;;;;;;;42.42;24.27;;;;;;;13.16;58.60;100127.78;4963970;28;20033;-52
2022/03/28 06:50:41;;;;;;;42.60;22.65;;;;;;;13.26;57.65;100127.16;4955543;28;20413;-50
2022/03/28 06:53:07;;;;;;;38.70;22.38;;;;;;;13.11;58.29;100124.97;4967012;28;20027;-49
2022/03/28 06:55:32;;;;;;;41.88;23.40;;;;;;;13.99;55.96;100124.78;4963913;28;20105;-50
2022/03/28 06:57:58;;;;;;;40.13;21.88;;;;;;;13.92;57.09;100119.53;4957115;28;20045;-51
2022/03/28 07:00:23;;;;;;;37.33;21.13;;;;;;;14.23;55.73;100123.59;4963179;28;20567;-52
2022/03/28 07:02:49;;;;;;;36.83;22.02;;;;;;;14.70;54.81;100124.31;4967690;28;20034;-51
2022/03/28 07:05:14;;;;;;;40.03;22.65;;;;;;;14.19;56.74;100129.72;4958476;28;20038;-52
2022/03/28 07:07:47;;;;;;;40.95;22.10;;;;;;;13.57;58.49;100123.22;4966994;28;20039;-52
2022/03/28 07:10:16;;;;;;;37.53;21.35;;;;;;;14.57;56.32;100120.91;4963191;28;20035;-52
2022/03/28 07:12:42;;;;;;;35.53;21.23;;;;;;;14.96;55.56;100122.81;4965178;28;20034;-51
2022/03/28 07:15:09;;;;;;;40.40;21.40;;;;;;;14.47;57.81;100120.72;4963297;28;20039;-50
2022/03/28 07:17:58;;;;;;;36.75;20.90;;;;;;;13.99;59.29;100117.53;4964987;28;20042;-49
2022/03/28 07:20:27;;;;;;;39.50;22.10;;;;;;;14.22;57.73;100118.44;4965193;28;20043;-53
2022/03/28 07:22:53;;;;;;;43.42;22.55;;;;;;;13.50;60.46;100111.78;4970607;28;20421;-52
2022/03/28 07:25:19;;;;;;;41.10;22.75;;;;;;;14.36;58.37;100113.56;4970671;28;20033;-50
2022/03/28 07:27:44;;;;;;;42.75;23.38;;;;;;;13.68;61.67;100107.25;4970860;28;20107;-52
2022/03/28 07:30:10;;;;;;;37.42;21.80;;;;;;;13.25;62.23;100103.16;4967783;28;20030;-51
2022/03/28 07:32:37;;;;;;;42.70;22.90;;;;;;;13.83;60.94;100102.16;4963706;28;20487;-51
2022/03/28 07:35:02;;;;;;;45.03;23.15;;;;;;;14.37;59.84;100109.78;4966146;28;20039;-49
2022/03/28 07:37:28;;;;;;;44.78;23.65;;;;;;;14.45;58.83;100101.25;4964218;28;20035;-51
2022/03/28 07:39:54;;;;;;;47.03;24.15;;;;;;;13.75;61.45;100102.53;4968697;28;20035;-52
2022/03/28 07:42:19;;;;;;;46.47;23.90;;;;;;;13.94;61.81;100089.66;4959591;28;20059;-51
2022/03/28 07:44:45;;;;;;;45.53;24.90;;;;;;;14.16;61.62;100097.88;4963912;28;20042;-49
2022/03/28 07:47:11;;;;;;;45.22;23.73;;;;;;;14.81;60.84;100099.94;4964958;28;20054;-49
2022/03/28 07:49:37;;;;;;;45.58;23.67;;;;;;;14.12;61.45;100091.31;4967287;28;20037;-51
2022/03/28 07:52:07;;;;;;;44.85;24.30;;;;;;;14.33;61.10;100093.28;4969889;28;20043;-52
2022/03/28 07:54:33;;;;;;;44.30;23.70;;;;;;;14.08;62.10;100082.06;4966119;28;20058;-51
2022/03/28 07:56:59;;;;;;;52.90;24.67;;;;;;;14.69;60.88;100085.75;4966121;28;20047;-49
2022/03/28 07:59:24;;;;;;;46.03;25.42;;;;;;;14.69;61.20;100085.75;4955353;28;20465;-49
2022/03/28 08:01:51;;;;;;;44.53;25.15;;;;;;;13.79;64.02;100071.38;4980471;28;20109;-51
2022/03/28 08:04:17;;;;;;;41.97;24.35;;;;;;;14.57;62.55;100072.34;4968988;28;20034;-51
2022/03/28 08:06:42;;;;;;;47.20;24.23;;;;;;;15.90;59.27;100073.09;4965710;28;20030;-50
2022/03/28 08:09:08;;;;;;;44.55;23.77;;;;;;;16.31;58.07;100068.03;4968108;28;20477;-52
2022/03/28 08:11:33;;;;;;;46.38;25.17;;;;;;;15.62;59.89;100066.84;4958859;28;20490;-52
2022/03/28 08:14:00;;;;;;;49.35;24.92;;;;;;;16.32;58.01;100070.44;4968315;28;20046;-49
2022/03/28 08:16:26;;;;;;;45.92;25.38;;;;;;;16.58;57.91;100066.03;4968528;28;20039;-53
2022/03/28 08:18:51;;;;;;;50.80;26.63;;;;;;;16.25;58.28;100069.03;4966635;28;20085;-52
2022/03/28 08:21:17;;;;;;;52.88;27.35;;;;;;;16.16;60.34;100056.00;4961970;28;20086;-50
2022/03/28 08:23:42;;;;;;;51.45;27.25;;;;;;;16.34;59.57;100056.69;4969237;28;20023;-51
2022/03/28 08:26:08;;;;;;;51.30;27.63;;;;;;;15.78;60.87;100057.06;4957498;28;20086;-54
2022/03/28 08:28:34;;;;;;;50.63;27.17;;;;;;;14.64;65.16;100050.59;4966617;28;20038;-51
2022/03/28 08:30:59;;;;;;;54.33;27.95;;;;;;;15.89;62.43;100047.13;4968479;28;20050;-53
2022/03/28 08:33:24;;;;;;;55.60;29.92;;;;;;;15.00;62.74;100048.34;4969463;28;20037;-51
2022/03/28 08:35:50;;;;;;;57.15;28.25;;;;;;;15.98;61.53;100032.09;4967148;28;20512;-52
2022/03/28 08:38:15;;;;;;;55.53;28.73;;;;;;;15.60;63.27;100043.88;4966450;28;20552;-53
2022/03/28 08:40:42;;;;;;;55.65;28.17;;;;;;;16.71;59.35;100040.38;4968840;28;20073;-52
2022/03/28 08:43:08;;;;;;;59.97;29.80;;;;;;;16.28;60.71;100036.09;4981812;28;20122;-51
2022/03/28 08:45:35;;;;;;;55.78;29.42;;;;;;;17.22;58.75;100039.81;4961430;28;20047;-50
2022/03/28 08:48:01;;;;;;;57.72;30.38;;;;;;;17.09;58.84;100032.19;4963574;28;20409;-53
2022/03/28 08:50:27;;;;;;;56.40;29.90;;;;;;;17.26;58.05;100035.47;4966811;28;20109;-50
2022/03/28 08:52:52;;;;;;;55.13;30.15;;;;;;;17.74;57.02;100030.69;4967921;28;20031;-52
2022/03/28 08:55:19;;;;;;;58.50;31.98;;;;;;;16.79;58.34;100020.16;4968668;28;20035;-50
2022/03/28 08:57:44;;;;;;;54.70;29.27;;;;;;;17.67;56.46;100019.28;4965663;28;20038;-50
2022/03/28 09:00:10;;;;;;;56.15;29.58;;;;;;;17.60;56.56;100016.06;4961231;28;20034;-51
2022/03/28 09:02:39;;;;;;;55.38;29.10;;;;;;;18.02;55.12;100020.41;4959982;28;20853;-52
2022/03/28 09:05:05;;;;;;;58.92;30.98;;;;;;;16.54;59.51;100024.31;4960793;28;20050;-50
2022/03/28 09:07:30;;;;;;;61.67;31.20;;;;;;;17.84;56.05;100019.88;4962628;28;20027;-50
2022/03/28 09:09:59;;;;;;;56.38;29.92;;;;;;;17.65;56.54;100011.44;4959348;28;20039;-51
2022/03/28 09:12:25;;;;;;;56.53;29.27;;;;;;;18.27;54.85;100006.81;4958210;28;20146;-50
2022/03/28 09:14:56;;;;;;;48.45;29.13;;;;;;;18.90;52.11;100013.72;4961056;28;20027;-49
2022/03/28 09:17:21;;;;;;;49.63;28.05;;;;;;;18.21;54.15;100010.63;4960273;28;20094;-50
2022/03/28 09:20:02;;;;;;;47.13;27.58;;;;;;;19.69;51.02;100008.38;4964450;28;20039;-52
2022/03/28 09:22:29;;;;;;;50.03;26.60;;;;;;;19.83;49.53;100002.00;4962378;28;20202;-51
2022/03/28 09:24:59;;;;;;;46.25;25.75;;;;;;;18.81;52.24;99999.09;4964209;28;20101;-52
2022/03/28 09:27:30;;;;;;;45.47;25.13;;;;;;;19.39;51.16;99999.28;4967920;28;20035;-52
2022/03/28 09:30:10;;;;;;;40.90;24.63;;;;;;;19.33;51.07;99995.81;4952375;28;20054;-52
2022/03/28 09:32:40;;;;;;;41.70;24.35;;;;;;;19.94;49.47;99991.00;4963856;28;20043;-50
2022/03/28 09:35:06;;;;;;;;;;;;;;;18.89;51.02;99984.91;4966442;28;20023;-53
2022/03/28 09:37:46;;;;;;;37.55;23.25;;;;;;;19.65;50.15;99986.34;4968158;28;19917;-52
2022/03/28 09:40:41;;;;;;;45.60;23.83;;;;;;;19.06;51.38;99979.94;4956599;28;20050;-50
2022/03/28 09:43:14;;;;;;;48.17;24.63;;;;;;;17.99;55.76;99972.94;4962449;28;20043;-51
2022/03/28 09:45:40;;;;;;;40.53;22.83;;;;;;;18.90;53.16;99981.94;4979367;28;20058;-50
2022/03/28 09:48:08;;;;;;;44.72;24.90;;;;;;;19.48;50.69;99969.63;4964699;28;20149;-53
2022/03/28 09:50:35;;;;;;;41.67;24.45;;;;;;;19.20;50.88;99968.47;4963090;28;20047;-53
2022/03/28 09:53:22;;;;;;;41.72;24.27;;;;;;;19.41;51.40;99964.50;4958646;28;20042;-50
2022/03/28 09:55:56;;;;;;;43.72;24.65;;;;;;;20.51;48.80;99961.31;4957995;28;21412;-53
2022/03/28 09:58:46;;;;;;;45.65;22.98;;;;;;;20.24;48.02;99951.81;4956331;28;20528;-50
2022/03/28 10:01:12;;;;;;;42.78;21.80;;;;;;;20.34;48.47;99950.88;4966106;28;20054;-52
2022/03/28 10:03:38;;;;;;;40.00;23.23;;;;;;;18.20;53.95;99941.19;4965093;28;20490;-51
2022/03/28 10:06:04;;;;;;;35.80;21.15;;;;;;;20.29;48.68;99940.06;4964607;28;20053;-52
2022/03/28 10:08:30;;;;;;;36.50;22.10;;;;;;;20.63;47.78;99937.22;4967073;28;20039;-50
2022/03/28 10:10:57;;;;;;;39.35;22.33;;;;;;;20.31;47.94;99938.66;4967531;28;20119;-50
2022/03/28 10:13:22;;;;;;;39.70;22.02;;;;;;;20.38;47.68;99933.69;4960704;28;20054;-53
2022/03/28 10:15:48;;;;;;;35.88;20.73;;;;;;;21.19;46.09;99931.00;4947546;28;20126;-53
2022/03/28 10:18:14;;;;;;;38.65;22.23;;;;;;;21.78;44.16;99925.16;4968787;28;20062;-53
2022/03/28 10:20:41;;;;;;;38.15;19.20;;;;;;;20.23;46.50;99914.81;4967182;28;20050;-53
2022/03/28 10:23:06;;;;;;;35.53;20.17;;;;;;;21.15;44.37;99913.63;4965564;28;20042;-53
2022/03/28 10:25:32;;;;;;;33.67;18.10;;;;;;;22.28;41.68;99907.03;4964814;28;20355;-52
2022/03/28 10:27:57;;;;;;;35.25;18.17;;;;;;;20.15;44.73;99907.28;4963995;28;20038;-50
2022/03/28 10:30:30;;;;;;;30.08;17.77;;;;;;;22.26;41.17;99897.53;4955147;28;20051;-51
2022/03/28 10:33:19;;;;;;;31.20;14.57;;;;;;;22.46;38.12;99897.09;4958644;28;20520;-52
2022/03/28 10:35:56;;;;;;;26.27;14.25;;;;;;;22.51;35.63;99893.47;4962537;28;20054;-52
2022/03/28 10:38:21;;;;;;;24.45;11.50;;;;;;;19.18;34.81;99892.66;4955521;28;20508;-52
2022/03/28 10:40:56;;;;;;;27.20;11.57;;;;;;;20.50;34.11;99876.09;4965694;28;20078;-52
2022/03/28 10:43:24;;;;;;;20.77;9.55;;;;;;;19.69;33.52;99883.28;4959128;28;20038;-49
2022/03/28 10:45:56;;;;;;;18.27;9.50;;;;;;;19.05;32.49;99880.53;4963421;28;20038;-54
2022/03/28 10:48:35;;;;;;;25.83;9.63;;;;;;;19.89;32.90;99877.63;4967863;28;20034;-53
2022/03/28 10:51:18;;;;;;;26.85;10.20;;;;;;;21.64;30.81;99874.13;4968393;28;20133;-54
2022/03/28 10:53:51;;;;;;;25.45;12.52;;;;;;;19.53;34.68;99875.22;4964862;28;20066;-53
2022/03/28 10:56:18;;;;;;;22.45;10.98;;;;;;;19.74;35.95;99869.63;4963436;28;20043;-51
2022/03/28 10:58:53;;;;;;;24.85;12.25;;;;;;;18.89;36.79;99862.69;4966323;28;20078;-50
2022/03/28 11:01:35;;;;;;;28.73;12.48;;;;;;;20.08;36.20;99861.38;4968726;28;20047;-50
2022/03/28 11:04:15;;;;;;;26.90;12.65;;;;;;;20.65;36.36;99856.03;4966395;28;20089;-53
2022/03/28 11:06:44;;;;;;;24.45;13.45;;;;;;;20.29;36.86;99845.59;4970936;28;20058;-50
2022/03/28 11:09:09;;;;;;;28.23;13.23;;;;;;;21.45;35.18;99851.56;4968101;28;20066;-53
2022/03/28 11:11:35;;;;;;;30.65;12.25;;;;;;;20.63;35.69;99844.63;4965735;28;20489;-53
2022/03/28 11:14:10;;;;;;;24.63;12.93;;;;;;;21.13;34.02;99844.16;4971078;28;20027;-51